sensor_id;sensor_type;location;lat;lon;timestamp;temperature;humidity
23405;DHT22;11875;49.356;2.718;2024-02-04T00:00:34;10.70;99.90
23405;DHT22;11875;49.356;2.718;2024-02-04T00:03:00;10.60;99.90
23405;DHT22;11875;49.356;2.718;2024-02-04T00:05:25;10.60;99.90
23405;DHT22;11875;49.356;2.718;2024-02-04T00:07:51;10.60;99.90
23405;DHT22;11875;49.356;2.718;2024-02-04T00:10:17;10.60;99.90
23405;DHT22;11875;49.356;2.718;2024-02-04T00:12:43;10.80;99.90
23405;DHT22;11875;49.356;2.718;2024-02-04T00:15:09;10.90;99.90
23405;DHT22;11875;49.356;2.718;2024-02-04T00:17:35;10.90;99.90
23405;DHT22;11875;49.356;2.718;2024-02-04T00:20:02;10.80;99.90
23405;DHT22;11875;49.356;2.718;2024-02-04T00:22:31;10.70;99.90
23405;DHT22;11875;49.356;2.718;2024-02-04T00:24:57;10.60;99.90
23405;DHT22;11875;49.356;2.718;2024-02-04T00:27:27;10.60;99.90
23405;DHT22;11875;49.356;2.718;2024-02-04T00:29:53;10.50;99.90
23405;DHT22;11875;49.356;2.718;2024-02-04T00:32:18;10.50;99.90
23405;DHT22;11875;49.356;2.718;2024-02-04T00:34:44;10.70;99.90
23405;DHT22;11875;49.356;2.718;2024-02-04T00:37:09;10.60;99.90
23405;DHT22;11875;49.356;2.718;2024-02-04T00:39:35;10.80;99.90
23405;DHT22;11875;49.356;2.718;2024-02-04T00:42:01;10.80;99.90
23405;DHT22;11875;49.356;2.718;2024-02-04T00:44:26;11.00;99.90
23405;DHT22;11875;49.356;2.718;2024-02-04T00:46:52;10.90;99.90
23405;DHT22;11875;49.356;2.718;2024-02-04T00:49:17;11.00;99.90
23405;DHT22;11875;49.356;2.718;2024-02-04T00:51:43;11.10;99.90
23405;DHT22;11875;49.356;2.718;2024-02-04T00:54:09;10.90;99.90
23405;DHT22;11875;49.356;2.718;2024-02-04T00:56:35;10.80;99.90
23405;DHT22;11875;49.356;2.718;2024-02-04T00:59:00;10.70;99.90
23405;DHT22;11875;49.356;2.718;2024-02-04T01:01:26;10.70;99.90
23405;DHT22;11875;49.356;2.718;2024-02-04T01:03:52;10.90;99.90
23405;DHT22;11875;49.356;2.718;2024-02-04T01:06:17;11.10;99.90
23405;DHT22;11875;49.356;2.718;2024-02-04T01:08:43;11.10;99.90
23405;DHT22;11875;49.356;2.718;2024-02-04T01:11:08;11.10;99.90
23405;DHT22;11875;49.356;2.718;2024-02-04T01:13:34;11.00;99.90
23405;DHT22;11875;49.356;2.718;2024-02-04T01:15:59;11.00;99.90
23405;DHT22;11875;49.356;2.718;2024-02-04T01:18:25;10.90;99.90
23405;DHT22;11875;49.356;2.718;2024-02-04T01:20:51;10.80;99.90
23405;DHT22;11875;49.356;2.718;2024-02-04T01:23:16;10.70;99.90
23405;DHT22;11875;49.356;2.718;2024-02-04T01:25:43;10.70;99.90
23405;DHT22;11875;49.356;2.718;2024-02-04T01:28:09;10.60;99.90
23405;DHT22;11875;49.356;2.718;2024-02-04T01:30:35;10.60;99.90
23405;DHT22;11875;49.356;2.718;2024-02-04T01:33:02;10.70;99.90
23405;DHT22;11875;49.356;2.718;2024-02-04T01:35:28;10.80;99.90
23405;DHT22;11875;49.356;2.718;2024-02-04T01:37:53;10.80;99.90
23405;DHT22;11875;49.356;2.718;2024-02-04T01:40:19;10.80;99.90
23405;DHT22;11875;49.356;2.718;2024-02-04T01:42:45;10.80;99.90
23405;DHT22;11875;49.356;2.718;2024-02-04T01:45:10;10.90;99.90
23405;DHT22;11875;49.356;2.718;2024-02-04T01:47:37;10.80;99.90
23405;DHT22;11875;49.356;2.718;2024-02-04T01:50:03;10.90;99.90
23405;DHT22;11875;49.356;2.718;2024-02-04T01:52:30;10.90;99.90
23405;DHT22;11875;49.356;2.718;2024-02-04T01:54:56;10.90;99.90
23405;DHT22;11875;49.356;2.718;2024-02-04T01:57:23;10.90;99.90
23405;DHT22;11875;49.356;2.718;2024-02-04T01:59:50;11.00;99.90
23405;DHT22;11875;49.356;2.718;2024-02-04T02:02:18;11.10;99.90
23405;DHT22;11875;49.356;2.718;2024-02-04T02:04:44;11.20;99.90
23405;DHT22;11875;49.356;2.718;2024-02-04T02:07:11;11.20;99.90
23405;DHT22;11875;49.356;2.718;2024-02-04T02:09:38;11.30;99.90
23405;DHT22;11875;49.356;2.718;2024-02-04T02:14:39;11.30;99.90
23405;DHT22;11875;49.356;2.718;2024-02-04T02:17:11;11.10;99.90
23405;DHT22;11875;49.356;2.718;2024-02-04T02:19:52;10.90;99.90
23405;DHT22;11875;49.356;2.718;2024-02-04T02:24:59;11.00;99.90
23405;DHT22;11875;49.356;2.718;2024-02-04T02:27:25;10.90;99.90
23405;DHT22;11875;49.356;2.718;2024-02-04T02:29:51;11.00;99.90
23405;DHT22;11875;49.356;2.718;2024-02-04T02:32:17;10.90;99.90
23405;DHT22;11875;49.356;2.718;2024-02-04T02:34:43;10.90;99.90
23405;DHT22;11875;49.356;2.718;2024-02-04T02:37:29;10.80;99.90
23405;DHT22;11875;49.356;2.718;2024-02-04T02:43:02;10.80;99.90
23405;DHT22;11875;49.356;2.718;2024-02-04T02:45:28;10.90;99.90
23405;DHT22;11875;49.356;2.718;2024-02-04T02:47:54;11.00;99.90
23405;DHT22;11875;49.356;2.718;2024-02-04T02:50:20;11.00;99.90
23405;DHT22;11875;49.356;2.718;2024-02-04T02:52:46;10.90;99.90
23405;DHT22;11875;49.356;2.718;2024-02-04T02:55:12;11.00;99.90
23405;DHT22;11875;49.356;2.718;2024-02-04T02:57:38;11.10;99.90
23405;DHT22;11875;49.356;2.718;2024-02-04T03:00:04;11.30;99.90
23405;DHT22;11875;49.356;2.718;2024-02-04T03:02:31;11.10;99.90
23405;DHT22;11875;49.356;2.718;2024-02-04T03:04:57;11.20;99.90
23405;DHT22;11875;49.356;2.718;2024-02-04T03:07:23;11.20;99.90
23405;DHT22;11875;49.356;2.718;2024-02-04T03:09:48;11.30;99.90
23405;DHT22;11875;49.356;2.718;2024-02-04T03:12:14;11.40;99.90
23405;DHT22;11875;49.356;2.718;2024-02-04T03:14:40;11.30;99.90
23405;DHT22;11875;49.356;2.718;2024-02-04T03:17:05;11.20;99.90
23405;DHT22;11875;49.356;2.718;2024-02-04T03:19:31;11.10;99.90
23405;DHT22;11875;49.356;2.718;2024-02-04T03:21:57;11.00;99.90
23405;DHT22;11875;49.356;2.718;2024-02-04T03:24:22;10.90;99.90
23405;DHT22;11875;49.356;2.718;2024-02-04T03:26:48;10.90;99.90
23405;DHT22;11875;49.356;2.718;2024-02-04T03:29:13;11.00;99.90
23405;DHT22;11875;49.356;2.718;2024-02-04T03:31:39;11.10;99.90
23405;DHT22;11875;49.356;2.718;2024-02-04T03:34:04;11.00;99.90
23405;DHT22;11875;49.356;2.718;2024-02-04T03:36:30;11.00;99.90
23405;DHT22;11875;49.356;2.718;2024-02-04T03:38:56;11.00;99.90
23405;DHT22;11875;49.356;2.718;2024-02-04T03:41:21;10.90;99.90
23405;DHT22;11875;49.356;2.718;2024-02-04T03:43:47;11.10;99.90
23405;DHT22;11875;49.356;2.718;2024-02-04T03:46:14;11.20;99.90
23405;DHT22;11875;49.356;2.718;2024-02-04T03:48:40;11.20;99.90
23405;DHT22;11875;49.356;2.718;2024-02-04T03:51:06;11.20;99.90
23405;DHT22;11875;49.356;2.718;2024-02-04T03:53:31;11.10;99.90
23405;DHT22;11875;49.356;2.718;2024-02-04T03:55:57;11.00;99.90
23405;DHT22;11875;49.356;2.718;2024-02-04T03:58:23;10.90;99.90
23405;DHT22;11875;49.356;2.718;2024-02-04T04:00:55;10.90;99.90
23405;DHT22;11875;49.356;2.718;2024-02-04T04:03:21;11.00;99.90
23405;DHT22;11875;49.356;2.718;2024-02-04T04:05:47;11.10;99.90
23405;DHT22;11875;49.356;2.718;2024-02-04T04:08:13;11.20;99.90
23405;DHT22;11875;49.356;2.718;2024-02-04T04:10:38;11.20;99.90
23405;DHT22;11875;49.356;2.718;2024-02-04T04:13:04;11.20;99.90
23405;DHT22;11875;49.356;2.718;2024-02-04T04:15:29;11.20;99.90
23405;DHT22;11875;49.356;2.718;2024-02-04T04:17:55;11.20;99.90
23405;DHT22;11875;49.356;2.718;2024-02-04T04:20:21;11.20;99.90
23405;DHT22;11875;49.356;2.718;2024-02-04T04:22:46;11.30;99.90
23405;DHT22;11875;49.356;2.718;2024-02-04T04:25:12;11.30;99.90
23405;DHT22;11875;49.356;2.718;2024-02-04T04:27:39;11.30;99.90
23405;DHT22;11875;49.356;2.718;2024-02-04T04:30:05;11.20;99.90
23405;DHT22;11875;49.356;2.718;2024-02-04T04:32:31;11.20;99.90
23405;DHT22;11875;49.356;2.718;2024-02-04T04:34:57;11.00;99.90
23405;DHT22;11875;49.356;2.718;2024-02-04T04:37:23;11.00;99.90
23405;DHT22;11875;49.356;2.718;2024-02-04T04:39:48;11.10;99.90
23405;DHT22;11875;49.356;2.718;2024-02-04T04:42:14;11.00;99.90
23405;DHT22;11875;49.356;2.718;2024-02-04T04:44:40;11.00;99.90
23405;DHT22;11875;49.356;2.718;2024-02-04T04:47:06;11.00;99.90
23405;DHT22;11875;49.356;2.718;2024-02-04T04:49:31;11.00;99.90
23405;DHT22;11875;49.356;2.718;2024-02-04T04:51:57;11.00;99.90
23405;DHT22;11875;49.356;2.718;2024-02-04T04:54:23;10.90;99.90
23405;DHT22;11875;49.356;2.718;2024-02-04T04:56:48;10.80;99.90
23405;DHT22;11875;49.356;2.718;2024-02-04T04:59:15;10.80;99.90
23405;DHT22;11875;49.356;2.718;2024-02-04T05:01:47;10.80;99.90
23405;DHT22;11875;49.356;2.718;2024-02-04T05:04:13;10.80;99.90
23405;DHT22;11875;49.356;2.718;2024-02-04T05:06:40;10.80;99.90
23405;DHT22;11875;49.356;2.718;2024-02-04T05:09:05;10.90;99.90
23405;DHT22;11875;49.356;2.718;2024-02-04T05:11:31;10.90;99.90
23405;DHT22;11875;49.356;2.718;2024-02-04T05:13:57;11.00;99.90
23405;DHT22;11875;49.356;2.718;2024-02-04T05:16:22;11.00;99.90
23405;DHT22;11875;49.356;2.718;2024-02-04T05:18:48;11.00;99.90
23405;DHT22;11875;49.356;2.718;2024-02-04T05:21:14;11.00;99.90
23405;DHT22;11875;49.356;2.718;2024-02-04T05:23:39;11.10;99.90
23405;DHT22;11875;49.356;2.718;2024-02-04T05:26:05;11.00;99.90
23405;DHT22;11875;49.356;2.718;2024-02-04T05:28:32;10.90;99.90
23405;DHT22;11875;49.356;2.718;2024-02-04T05:30:58;10.80;99.90
23405;DHT22;11875;49.356;2.718;2024-02-04T05:33:23;10.90;99.90
23405;DHT22;11875;49.356;2.718;2024-02-04T05:35:49;10.90;99.90
23405;DHT22;11875;49.356;2.718;2024-02-04T05:38:16;11.00;99.90
23405;DHT22;11875;49.356;2.718;2024-02-04T05:40:42;11.10;99.90
23405;DHT22;11875;49.356;2.718;2024-02-04T05:43:08;10.90;99.90
23405;DHT22;11875;49.356;2.718;2024-02-04T05:45:38;10.90;99.90
23405;DHT22;11875;49.356;2.718;2024-02-04T05:48:07;10.90;99.90
23405;DHT22;11875;49.356;2.718;2024-02-04T05:50:32;10.80;99.90
23405;DHT22;11875;49.356;2.718;2024-02-04T05:52:58;10.80;99.90
23405;DHT22;11875;49.356;2.718;2024-02-04T05:55:24;10.80;99.90
23405;DHT22;11875;49.356;2.718;2024-02-04T05:57:49;10.80;99.90
23405;DHT22;11875;49.356;2.718;2024-02-04T06:00:15;10.80;99.90
23405;DHT22;11875;49.356;2.718;2024-02-04T06:02:41;10.80;99.90
23405;DHT22;11875;49.356;2.718;2024-02-04T06:05:09;10.70;99.90
23405;DHT22;11875;49.356;2.718;2024-02-04T06:07:34;10.70;99.90
23405;DHT22;11875;49.356;2.718;2024-02-04T06:12:29;10.90;99.90
23405;DHT22;11875;49.356;2.718;2024-02-04T06:14:54;10.90;99.90
23405;DHT22;11875;49.356;2.718;2024-02-04T06:17:20;10.90;99.90
23405;DHT22;11875;49.356;2.718;2024-02-04T06:19:46;10.90;99.90
23405;DHT22;11875;49.356;2.718;2024-02-04T06:22:11;10.70;99.90
23405;DHT22;11875;49.356;2.718;2024-02-04T06:24:37;10.80;99.90
23405;DHT22;11875;49.356;2.718;2024-02-04T06:27:04;10.80;99.90
23405;DHT22;11875;49.356;2.718;2024-02-04T06:29:30;10.80;99.90
23405;DHT22;11875;49.356;2.718;2024-02-04T06:31:56;10.70;99.90
23405;DHT22;11875;49.356;2.718;2024-02-04T06:34:21;10.60;99.90
23405;DHT22;11875;49.356;2.718;2024-02-04T06:36:47;10.60;99.90
23405;DHT22;11875;49.356;2.718;2024-02-04T06:39:13;10.70;99.90
23405;DHT22;11875;49.356;2.718;2024-02-04T06:41:39;10.60;99.90
23405;DHT22;11875;49.356;2.718;2024-02-04T06:44:05;10.60;99.90
23405;DHT22;11875;49.356;2.718;2024-02-04T06:46:31;10.70;99.90
23405;DHT22;11875;49.356;2.718;2024-02-04T06:48:56;10.60;99.90
23405;DHT22;11875;49.356;2.718;2024-02-04T06:51:24;10.60;99.90
23405;DHT22;11875;49.356;2.718;2024-02-04T06:53:49;10.60;99.90
23405;DHT22;11875;49.356;2.718;2024-02-04T06:56:15;10.60;99.90
23405;DHT22;11875;49.356;2.718;2024-02-04T06:58:41;10.50;99.90
23405;DHT22;11875;49.356;2.718;2024-02-04T07:01:07;10.50;99.90
23405;DHT22;11875;49.356;2.718;2024-02-04T07:03:33;10.60;99.90
23405;DHT22;11875;49.356;2.718;2024-02-04T07:06:00;10.60;99.90
23405;DHT22;11875;49.356;2.718;2024-02-04T07:08:25;10.70;99.90
23405;DHT22;11875;49.356;2.718;2024-02-04T07:10:51;10.70;99.90
23405;DHT22;11875;49.356;2.718;2024-02-04T07:13:17;10.70;99.90
23405;DHT22;11875;49.356;2.718;2024-02-04T07:15:43;10.70;99.90
23405;DHT22;11875;49.356;2.718;2024-02-04T07:18:09;10.60;99.90
23405;DHT22;11875;49.356;2.718;2024-02-04T07:20:35;10.70;99.90
23405;DHT22;11875;49.356;2.718;2024-02-04T07:23:01;10.80;99.90
23405;DHT22;11875;49.356;2.718;2024-02-04T07:25:26;10.80;99.90
23405;DHT22;11875;49.356;2.718;2024-02-04T07:27:52;10.70;99.90
23405;DHT22;11875;49.356;2.718;2024-02-04T07:30:18;10.80;99.90
23405;DHT22;11875;49.356;2.718;2024-02-04T07:32:44;10.80;99.90
23405;DHT22;11875;49.356;2.718;2024-02-04T07:35:09;10.70;99.90
23405;DHT22;11875;49.356;2.718;2024-02-04T07:37:36;10.70;99.90
23405;DHT22;11875;49.356;2.718;2024-02-04T07:40:01;10.70;99.90
23405;DHT22;11875;49.356;2.718;2024-02-04T07:42:27;10.70;99.90
23405;DHT22;11875;49.356;2.718;2024-02-04T07:44:53;10.60;99.90
23405;DHT22;11875;49.356;2.718;2024-02-04T07:47:19;10.70;99.90
23405;DHT22;11875;49.356;2.718;2024-02-04T07:49:47;10.80;99.90
23405;DHT22;11875;49.356;2.718;2024-02-04T07:52:13;10.80;99.90
23405;DHT22;11875;49.356;2.718;2024-02-04T07:54:39;10.90;99.90
23405;DHT22;11875;49.356;2.718;2024-02-04T07:57:04;10.80;99.90
23405;DHT22;11875;49.356;2.718;2024-02-04T07:59:30;10.80;99.90
23405;DHT22;11875;49.356;2.718;2024-02-04T08:01:56;10.80;99.90
23405;DHT22;11875;49.356;2.718;2024-02-04T08:04:21;10.70;99.90
23405;DHT22;11875;49.356;2.718;2024-02-04T08:06:47;10.80;99.90
23405;DHT22;11875;49.356;2.718;2024-02-04T08:09:13;10.70;99.90
23405;DHT22;11875;49.356;2.718;2024-02-04T08:11:38;10.70;99.90
23405;DHT22;11875;49.356;2.718;2024-02-04T08:14:04;10.60;99.90
23405;DHT22;11875;49.356;2.718;2024-02-04T08:16:30;10.70;99.90
23405;DHT22;11875;49.356;2.718;2024-02-04T08:18:55;10.60;99.90
23405;DHT22;11875;49.356;2.718;2024-02-04T08:21:21;10.60;99.90
23405;DHT22;11875;49.356;2.718;2024-02-04T08:23:47;10.60;99.90
23405;DHT22;11875;49.356;2.718;2024-02-04T08:26:13;10.50;99.90
23405;DHT22;11875;49.356;2.718;2024-02-04T08:28:38;10.60;99.90
23405;DHT22;11875;49.356;2.718;2024-02-04T08:31:04;10.60;99.90
23405;DHT22;11875;49.356;2.718;2024-02-04T08:33:30;10.70;99.90
23405;DHT22;11875;49.356;2.718;2024-02-04T08:35:56;10.70;99.90
23405;DHT22;11875;49.356;2.718;2024-02-04T08:38:21;10.80;99.90
23405;DHT22;11875;49.356;2.718;2024-02-04T08:40:47;10.70;99.90
23405;DHT22;11875;49.356;2.718;2024-02-04T08:43:12;10.80;99.90
23405;DHT22;11875;49.356;2.718;2024-02-04T08:45:38;10.80;99.90
23405;DHT22;11875;49.356;2.718;2024-02-04T08:48:04;10.80;99.90
23405;DHT22;11875;49.356;2.718;2024-02-04T08:50:29;10.80;99.90
23405;DHT22;11875;49.356;2.718;2024-02-04T08:52:55;10.70;99.90
23405;DHT22;11875;49.356;2.718;2024-02-04T08:55:21;10.70;99.90
23405;DHT22;11875;49.356;2.718;2024-02-04T08:57:47;10.60;99.90
23405;DHT22;11875;49.356;2.718;2024-02-04T09:00:16;10.60;99.90
23405;DHT22;11875;49.356;2.718;2024-02-04T09:02:42;10.50;99.90
23405;DHT22;11875;49.356;2.718;2024-02-04T09:05:08;10.50;99.90
23405;DHT22;11875;49.356;2.718;2024-02-04T09:07:34;10.50;99.90
23405;DHT22;11875;49.356;2.718;2024-02-04T09:10:00;10.50;99.90
23405;DHT22;11875;49.356;2.718;2024-02-04T09:12:25;10.50;99.90
23405;DHT22;11875;49.356;2.718;2024-02-04T09:14:51;10.40;99.90
23405;DHT22;11875;49.356;2.718;2024-02-04T09:17:16;10.50;99.90
23405;DHT22;11875;49.356;2.718;2024-02-04T09:19:42;10.50;99.90
23405;DHT22;11875;49.356;2.718;2024-02-04T09:22:07;10.50;99.90
23405;DHT22;11875;49.356;2.718;2024-02-04T09:24:33;10.50;99.90
23405;DHT22;11875;49.356;2.718;2024-02-04T09:26:59;10.50;99.90
23405;DHT22;11875;49.356;2.718;2024-02-04T09:29:25;10.60;99.90
23405;DHT22;11875;49.356;2.718;2024-02-04T09:31:52;10.70;99.90
23405;DHT22;11875;49.356;2.718;2024-02-04T09:34:19;10.70;99.90
23405;DHT22;11875;49.356;2.718;2024-02-04T09:36:45;10.70;99.90
23405;DHT22;11875;49.356;2.718;2024-02-04T09:39:10;10.70;99.90
23405;DHT22;11875;49.356;2.718;2024-02-04T09:41:36;10.70;99.90
23405;DHT22;11875;49.356;2.718;2024-02-04T09:44:02;10.70;99.90
23405;DHT22;11875;49.356;2.718;2024-02-04T09:46:29;10.70;99.90
23405;DHT22;11875;49.356;2.718;2024-02-04T09:48:56;10.70;99.90
23405;DHT22;11875;49.356;2.718;2024-02-04T09:51:22;10.70;99.90
23405;DHT22;11875;49.356;2.718;2024-02-04T09:53:53;10.70;99.90
23405;DHT22;11875;49.356;2.718;2024-02-04T09:56:22;10.80;99.90
23405;DHT22;11875;49.356;2.718;2024-02-04T09:58:50;10.90;99.90
23405;DHT22;11875;49.356;2.718;2024-02-04T10:01:19;10.90;99.90
23405;DHT22;11875;49.356;2.718;2024-02-04T10:03:47;10.90;99.90
23405;DHT22;11875;49.356;2.718;2024-02-04T10:06:13;10.90;99.90
23405;DHT22;11875;49.356;2.718;2024-02-04T10:08:38;10.80;99.90
23405;DHT22;11875;49.356;2.718;2024-02-04T10:11:04;10.70;99.90
23405;DHT22;11875;49.356;2.718;2024-02-04T10:13:30;10.80;99.90
23405;DHT22;11875;49.356;2.718;2024-02-04T10:15:55;10.90;99.90
23405;DHT22;11875;49.356;2.718;2024-02-04T10:18:21;11.00;99.90
23405;DHT22;11875;49.356;2.718;2024-02-04T10:20:47;10.90;99.90
23405;DHT22;11875;49.356;2.718;2024-02-04T10:23:13;10.90;99.90
23405;DHT22;11875;49.356;2.718;2024-02-04T10:25:39;10.80;99.90
23405;DHT22;11875;49.356;2.718;2024-02-04T10:28:05;10.90;99.90
23405;DHT22;11875;49.356;2.718;2024-02-04T10:30:30;10.90;99.90
23405;DHT22;11875;49.356;2.718;2024-02-04T10:32:56;10.90;99.90
23405;DHT22;11875;49.356;2.718;2024-02-04T10:35:22;11.00;99.90
23405;DHT22;11875;49.356;2.718;2024-02-04T10:37:52;11.10;99.90
23405;DHT22;11875;49.356;2.718;2024-02-04T10:40:18;11.20;99.90
23405;DHT22;11875;49.356;2.718;2024-02-04T10:42:44;11.20;99.90
23405;DHT22;11875;49.356;2.718;2024-02-04T10:45:10;11.10;99.90
23405;DHT22;11875;49.356;2.718;2024-02-04T10:47:39;11.20;99.90
23405;DHT22;11875;49.356;2.718;2024-02-04T10:50:07;11.10;99.90
23405;DHT22;11875;49.356;2.718;2024-02-04T10:52:40;11.20;99.90
23405;DHT22;11875;49.356;2.718;2024-02-04T10:55:08;11.10;99.90
23405;DHT22;11875;49.356;2.718;2024-02-04T10:57:35;11.10;99.90
23405;DHT22;11875;49.356;2.718;2024-02-04T11:00:03;11.10;99.90
23405;DHT22;11875;49.356;2.718;2024-02-04T11:02:34;11.20;99.90
23405;DHT22;11875;49.356;2.718;2024-02-04T11:05:01;11.10;99.90
23405;DHT22;11875;49.356;2.718;2024-02-04T11:07:33;11.20;99.90
23405;DHT22;11875;49.356;2.718;2024-02-04T11:10:00;11.30;99.90
23405;DHT22;11875;49.356;2.718;2024-02-04T11:12:28;11.20;99.90
23405;DHT22;11875;49.356;2.718;2024-02-04T11:14:57;11.20;99.90
23405;DHT22;11875;49.356;2.718;2024-02-04T11:23:50;11.20;99.90
23405;DHT22;11875;49.356;2.718;2024-02-04T11:26:19;11.20;99.90
23405;DHT22;11875;49.356;2.718;2024-02-04T11:28:45;11.20;99.90
23405;DHT22;11875;49.356;2.718;2024-02-04T11:31:18;11.10;99.90
23405;DHT22;11875;49.356;2.718;2024-02-04T11:33:45;11.20;99.90
23405;DHT22;11875;49.356;2.718;2024-02-04T11:36:14;11.20;99.90
23405;DHT22;11875;49.356;2.718;2024-02-04T11:38:41;11.30;99.90
23405;DHT22;11875;49.356;2.718;2024-02-04T11:41:07;11.30;99.90
23405;DHT22;11875;49.356;2.718;2024-02-04T11:43:34;11.30;99.90
23405;DHT22;11875;49.356;2.718;2024-02-04T11:46:02;11.30;99.90
23405;DHT22;11875;49.356;2.718;2024-02-04T11:48:33;11.20;99.90
23405;DHT22;11875;49.356;2.718;2024-02-04T11:50:59;11.30;99.90
23405;DHT22;11875;49.356;2.718;2024-02-04T11:53:26;11.30;99.90
23405;DHT22;11875;49.356;2.718;2024-02-04T11:55:55;11.30;99.90
23405;DHT22;11875;49.356;2.718;2024-02-04T11:58:21;11.30;99.90
23405;DHT22;11875;49.356;2.718;2024-02-04T12:00:47;11.30;99.90
23405;DHT22;11875;49.356;2.718;2024-02-04T12:03:14;11.30;99.90
23405;DHT22;11875;49.356;2.718;2024-02-04T12:05:41;11.40;99.90
23405;DHT22;11875;49.356;2.718;2024-02-04T12:08:07;11.40;99.90
23405;DHT22;11875;49.356;2.718;2024-02-04T12:10:35;11.40;99.90
23405;DHT22;11875;49.356;2.718;2024-02-04T12:13:03;11.40;99.90
23405;DHT22;11875;49.356;2.718;2024-02-04T12:15:29;11.40;99.90
23405;DHT22;11875;49.356;2.718;2024-02-04T12:20:33;11.50;99.90
23405;DHT22;11875;49.356;2.718;2024-02-04T12:22:59;11.50;99.90
23405;DHT22;11875;49.356;2.718;2024-02-04T12:25:24;11.50;99.90
23405;DHT22;11875;49.356;2.718;2024-02-04T12:27:53;11.40;99.90
23405;DHT22;11875;49.356;2.718;2024-02-04T12:30:18;11.30;99.90
23405;DHT22;11875;49.356;2.718;2024-02-04T12:32:44;11.30;99.90
23405;DHT22;11875;49.356;2.718;2024-02-04T12:35:15;11.30;99.90
23405;DHT22;11875;49.356;2.718;2024-02-04T12:37:54;11.50;99.90
23405;DHT22;11875;49.356;2.718;2024-02-04T12:40:24;11.50;99.90
23405;DHT22;11875;49.356;2.718;2024-02-04T12:42:57;11.40;99.90
23405;DHT22;11875;49.356;2.718;2024-02-04T12:45:24;11.50;99.90
23405;DHT22;11875;49.356;2.718;2024-02-04T12:47:51;11.50;99.90
23405;DHT22;11875;49.356;2.718;2024-02-04T12:50:17;11.50;99.90
23405;DHT22;11875;49.356;2.718;2024-02-04T12:52:45;11.70;99.90
23405;DHT22;11875;49.356;2.718;2024-02-04T12:55:25;11.80;99.90
23405;DHT22;11875;49.356;2.718;2024-02-04T12:58:12;11.80;99.90
23405;DHT22;11875;49.356;2.718;2024-02-04T13:00:40;11.80;99.90
23405;DHT22;11875;49.356;2.718;2024-02-04T13:03:06;11.80;99.90
23405;DHT22;11875;49.356;2.718;2024-02-04T13:05:38;11.70;99.90
23405;DHT22;11875;49.356;2.718;2024-02-04T13:08:05;11.60;99.90
23405;DHT22;11875;49.356;2.718;2024-02-04T13:10:32;11.50;99.90
23405;DHT22;11875;49.356;2.718;2024-02-04T13:13:06;11.50;99.90
23405;DHT22;11875;49.356;2.718;2024-02-04T13:15:40;11.40;99.90
23405;DHT22;11875;49.356;2.718;2024-02-04T13:18:07;11.50;99.90
23405;DHT22;11875;49.356;2.718;2024-02-04T13:20:33;11.50;99.90
23405;DHT22;11875;49.356;2.718;2024-02-04T13:22:58;11.60;99.90
23405;DHT22;11875;49.356;2.718;2024-02-04T13:25:25;11.60;99.90
23405;DHT22;11875;49.356;2.718;2024-02-04T13:27:52;11.60;99.90
23405;DHT22;11875;49.356;2.718;2024-02-04T13:30:18;11.50;99.90
23405;DHT22;11875;49.356;2.718;2024-02-04T13:32:45;11.50;99.90
23405;DHT22;11875;49.356;2.718;2024-02-04T13:35:11;11.50;99.90
23405;DHT22;11875;49.356;2.718;2024-02-04T13:37:39;11.40;99.90
23405;DHT22;11875;49.356;2.718;2024-02-04T13:40:06;11.40;99.90
23405;DHT22;11875;49.356;2.718;2024-02-04T13:42:33;11.40;99.90
23405;DHT22;11875;49.356;2.718;2024-02-04T13:45:00;11.60;99.90
23405;DHT22;11875;49.356;2.718;2024-02-04T13:47:26;11.70;99.90
23405;DHT22;11875;49.356;2.718;2024-02-04T13:49:51;11.80;99.90
23405;DHT22;11875;49.356;2.718;2024-02-04T13:52:17;11.80;99.90
23405;DHT22;11875;49.356;2.718;2024-02-04T13:54:43;11.80;99.90
23405;DHT22;11875;49.356;2.718;2024-02-04T13:57:09;11.70;99.90
23405;DHT22;11875;49.356;2.718;2024-02-04T13:59:34;11.80;99.90
23405;DHT22;11875;49.356;2.718;2024-02-04T14:02:00;11.90;99.90
23405;DHT22;11875;49.356;2.718;2024-02-04T14:04:26;12.00;99.90
23405;DHT22;11875;49.356;2.718;2024-02-04T14:06:52;12.00;99.90
23405;DHT22;11875;49.356;2.718;2024-02-04T14:09:18;11.90;99.90
23405;DHT22;11875;49.356;2.718;2024-02-04T14:11:43;12.00;99.90
23405;DHT22;11875;49.356;2.718;2024-02-04T14:14:09;12.00;99.90
23405;DHT22;11875;49.356;2.718;2024-02-04T14:16:34;12.00;99.90
23405;DHT22;11875;49.356;2.718;2024-02-04T14:19:00;12.00;99.90
23405;DHT22;11875;49.356;2.718;2024-02-04T14:21:26;12.00;99.90
23405;DHT22;11875;49.356;2.718;2024-02-04T14:23:51;12.00;99.90
23405;DHT22;11875;49.356;2.718;2024-02-04T14:26:18;12.00;99.90
23405;DHT22;11875;49.356;2.718;2024-02-04T14:28:43;11.90;99.90
23405;DHT22;11875;49.356;2.718;2024-02-04T14:31:09;11.90;99.90
23405;DHT22;11875;49.356;2.718;2024-02-04T14:33:35;11.90;99.90
23405;DHT22;11875;49.356;2.718;2024-02-04T14:36:00;12.00;99.90
23405;DHT22;11875;49.356;2.718;2024-02-04T14:38:26;12.20;99.90
23405;DHT22;11875;49.356;2.718;2024-02-04T14:40:52;12.30;99.90
23405;DHT22;11875;49.356;2.718;2024-02-04T14:43:18;13.40;99.90
23405;DHT22;11875;49.356;2.718;2024-02-04T14:45:44;12.40;99.90
23405;DHT22;11875;49.356;2.718;2024-02-04T14:48:09;12.50;99.90
23405;DHT22;11875;49.356;2.718;2024-02-04T14:50:35;12.30;99.90
23405;DHT22;11875;49.356;2.718;2024-02-04T14:53:00;12.30;99.90
23405;DHT22;11875;49.356;2.718;2024-02-04T14:55:27;12.40;99.90
23405;DHT22;11875;49.356;2.718;2024-02-04T14:57:53;12.40;99.90
23405;DHT22;11875;49.356;2.718;2024-02-04T15:00:18;12.20;99.90
23405;DHT22;11875;49.356;2.718;2024-02-04T15:02:46;12.10;99.90
23405;DHT22;11875;49.356;2.718;2024-02-04T15:05:12;12.10;99.90
23405;DHT22;11875;49.356;2.718;2024-02-04T15:07:37;12.20;99.90
23405;DHT22;11875;49.356;2.718;2024-02-04T15:10:03;12.20;99.90
23405;DHT22;11875;49.356;2.718;2024-02-04T15:12:29;12.30;99.90
23405;DHT22;11875;49.356;2.718;2024-02-04T15:14:55;12.20;99.90
23405;DHT22;11875;49.356;2.718;2024-02-04T15:17:20;12.30;99.90
23405;DHT22;11875;49.356;2.718;2024-02-04T15:19:46;12.30;99.90
23405;DHT22;11875;49.356;2.718;2024-02-04T15:22:13;12.30;99.90
23405;DHT22;11875;49.356;2.718;2024-02-04T15:24:38;12.20;99.90
23405;DHT22;11875;49.356;2.718;2024-02-04T15:27:05;12.20;99.90
23405;DHT22;11875;49.356;2.718;2024-02-04T15:29:37;12.10;99.90
23405;DHT22;11875;49.356;2.718;2024-02-04T15:32:04;12.00;99.90
23405;DHT22;11875;49.356;2.718;2024-02-04T15:34:32;11.90;99.90
23405;DHT22;11875;49.356;2.718;2024-02-04T15:36:59;11.90;99.90
23405;DHT22;11875;49.356;2.718;2024-02-04T15:39:25;12.00;99.90
23405;DHT22;11875;49.356;2.718;2024-02-04T15:41:50;12.00;99.90
23405;DHT22;11875;49.356;2.718;2024-02-04T15:44:16;12.00;99.90